Impacts TAF Board INFO
FOR SITUATIONAL AWARENESS. NOT TO BE USED FOR FLIGHT PLANNING PURPOSES.
IDs:

KDCA - Washington/National, VA, US

Issued at 1446 UTC 17 Dec 2017
Updated at 1738 UTC 17 Dec 2017
Potential Impact None Slight Moderate High
Time1652Z 17/18Z 17/19Z 17/20Z 17/21Z 17/22Z 17/23Z 18/00Z 18/01Z 18/02Z 18/03Z 18/04Z 18/05Z 18/06Z>>
Type OBS PRVL PRVL PRVL PRVL PRVL PRVL PRVL PRVL PRVL PRVL PRVL PRVL PRVL
VIS 10 >6 >6 >6 >6 >6 >6 >6 >6 >6 >6 >6 >6 >6
CIG 120 200 100 100 100 100 100 100 100 100 100 100 60 60
Cover OVC BKN BKN BKN BKN BKN BKN BKN BKN BKN BKN BKN BKN BKN
FltCat VFR VFR VFR VFR VFR VFR VFR VFR VFR VFR VFR VFR VFR VFR
WX -- -- -- -- -- -- -- -- -- -- -- -- -- --
WDir 170 180 140 140 140 140 140 140 140 140 140 140 VRB VRB
WSpd 6 3 4 4 4 4 4 4 4 4 4 4 0 0
WGst -- -- -- -- -- -- -- -- -- -- -- -- -- --

Raw TAF
KDCA 171446Z 1715/1818 18003KT P6SM BKN200
  FM171900 14004KT P6SM BKN100
  FM180500 00000KT P6SM BKN060
  FM181200 VRB04KT P6SM SCT060 BKN250


Raw METAR
KDCA 171652Z 17006KT 10SM BKN120 OVC250 08/00 A3026 RMK AO2 SLP248 T00780000
KDCA 171552Z 00000KT 10SM BKN120 BKN250 07/M01 A3028 RMK AO2 SLP252 T00671011
KDCA 171452Z 00000KT 10SM SCT120 BKN250 04/M01 A3026 RMK AO2 SLP246 T00441006 50001

METAR Board
Radar Display
Forecast Discussion

FOR SITUATIONAL AWARENESS. NOT TO BE USED FOR FLIGHT PLANNING PURPOSES.